createdAt,value
2022-11-06T00:01:49.690Z,15.98
2022-11-06T00:04:17.133Z,19.60
2022-11-06T00:06:50.144Z,13.88
2022-11-06T00:09:21.528Z,14.52
2022-11-06T00:11:50.426Z,14.60
2022-11-06T00:14:18.812Z,14.48
2022-11-06T00:16:47.718Z,17.73
2022-11-06T00:19:16.059Z,16.77
2022-11-06T00:21:44.016Z,14.68
2022-11-06T00:24:14.258Z,15.38
2022-11-06T00:26:42.196Z,14.10
2022-11-06T00:29:14.655Z,15.35
2022-11-06T00:31:42.731Z,15.82
2022-11-06T00:34:11.044Z,13.50
2022-11-06T00:36:38.703Z,14.10
2022-11-06T00:39:06.176Z,18.15
2022-11-06T00:41:33.537Z,14.45
2022-11-06T00:44:02.930Z,16.83
2022-11-06T00:46:30.517Z,16.45
2022-11-06T00:48:58.237Z,18.10
2022-11-06T00:51:32.276Z,16.88
2022-11-06T00:54:05.820Z,17.27
2022-11-06T00:56:34.087Z,16.65
2022-11-06T00:59:03.800Z,15.27
2022-11-06T01:01:33.651Z,16.52
2022-11-06T01:04:04.550Z,15.30
2022-11-06T01:06:37.565Z,17.63
2022-11-06T01:09:06.013Z,19.75
2022-11-06T01:12:06.624Z,15.45
2022-11-06T01:14:27.205Z,15.68
2022-11-06T01:16:54.547Z,15.10
2022-11-06T01:19:24.725Z,16.13
2022-11-06T01:21:53.614Z,16.75
2022-11-06T01:24:27.475Z,19.55
2022-11-06T01:27:24.977Z,17.00
2022-11-06T01:29:43.741Z,15.02
2022-11-06T01:32:11.307Z,16.88
2022-11-06T01:34:38.714Z,16.65
2022-11-06T01:37:10.388Z,18.83
2022-11-06T01:39:41.564Z,15.13
2022-11-06T01:42:12.775Z,14.82
2022-11-06T01:44:43.147Z,17.60
2022-11-06T01:47:29.822Z,20.00
2022-11-06T01:50:01.810Z,18.58
2022-11-06T01:52:33.503Z,17.33
2022-11-06T01:55:14.769Z,14.65
2022-11-06T01:57:42.843Z,17.00
2022-11-06T02:00:10.928Z,15.25
2022-11-06T02:02:39.665Z,17.60
2022-11-06T02:05:07.839Z,18.00
2022-11-06T02:07:36.162Z,15.73
2022-11-06T02:10:04.709Z,16.52
2022-11-06T02:12:52.187Z,18.95
2022-11-06T02:15:37.436Z,19.00
2022-11-06T02:18:22.243Z,16.20
2022-11-06T02:21:28.356Z,17.67
2022-11-06T02:24:20.316Z,18.70
2022-11-06T02:27:20.466Z,16.38
2022-11-06T02:30:11.766Z,18.00
2022-11-06T02:32:59.413Z,16.88
2022-11-06T02:35:42.913Z,19.95
2022-11-06T02:38:16.648Z,22.00
2022-11-06T02:40:50.656Z,20.33
2022-11-06T02:43:21.300Z,18.00
2022-11-06T02:45:56.143Z,26.70
2022-11-06T02:48:32.444Z,27.35
2022-11-06T02:51:03.224Z,25.13
2022-11-06T02:53:32.512Z,30.15
2022-11-06T02:56:07.439Z,26.33
2022-11-06T02:58:49.194Z,28.23
2022-11-06T03:01:34.706Z,26.27
2022-11-06T03:04:07.236Z,24.30
2022-11-06T03:06:41.153Z,26.10
2022-11-06T03:09:14.922Z,24.98
2022-11-06T03:11:42.634Z,24.55
2022-11-06T03:14:25.273Z,24.10
2022-11-06T03:17:11.544Z,29.90
2022-11-06T03:19:48.152Z,29.33
2022-11-06T03:22:20.162Z,31.48
2022-11-06T03:24:56.084Z,28.55
2022-11-06T03:27:32.714Z,27.45
2022-11-06T03:30:13.846Z,24.50
2022-11-06T03:32:49.544Z,27.42
2022-11-06T03:35:51.276Z,27.58
2022-11-06T03:38:36.119Z,30.80
2022-11-06T03:41:20.496Z,29.05
2022-11-06T03:43:50.834Z,29.70
2022-11-06T03:46:25.341Z,28.92
2022-11-06T03:49:11.016Z,28.67
2022-11-06T03:51:56.957Z,26.73
2022-11-06T03:54:29.566Z,26.92
2022-11-06T03:57:03.286Z,29.13
2022-11-06T03:59:37.556Z,31.60
2022-11-06T04:02:05.084Z,27.10
2022-11-06T04:04:54.090Z,26.15
2022-11-06T04:07:26.129Z,28.23
2022-11-06T04:10:18.824Z,26.38
2022-11-06T04:13:06.524Z,30.95
2022-11-06T04:15:41.330Z,27.25
2022-11-06T04:18:18.140Z,28.42
2022-11-06T04:21:22.723Z,33.38
2022-11-06T04:24:21.609Z,29.90
2022-11-06T04:27:22.952Z,30.88
2022-11-06T04:30:01.045Z,34.38
2022-11-06T04:32:46.711Z,32.58
2022-11-06T04:35:38.047Z,31.35
2022-11-06T04:38:26.101Z,30.75
2022-11-06T04:41:06.513Z,31.65
2022-11-06T04:43:50.063Z,35.95
2022-11-06T04:46:25.092Z,35.05
2022-11-06T04:48:53.466Z,29.45
2022-11-06T04:51:25.135Z,31.92
2022-11-06T04:53:53.862Z,34.22
2022-11-06T04:56:31.919Z,30.20
2022-11-06T04:59:01.443Z,31.95
2022-11-06T05:01:28.886Z,32.45
2022-11-06T05:03:56.487Z,27.58
2022-11-06T05:06:29.790Z,31.02
2022-11-06T05:08:59.306Z,29.70
2022-11-06T05:11:26.664Z,30.40
2022-11-06T05:13:54.596Z,29.80
2022-11-06T05:16:21.997Z,31.50
2022-11-06T05:18:49.274Z,31.40
2022-11-06T05:21:34.954Z,32.97
2022-11-06T05:24:02.259Z,31.67
2022-11-06T05:26:29.683Z,34.33
2022-11-06T05:28:56.988Z,34.25
2022-11-06T05:31:25.442Z,34.00
2022-11-06T05:33:52.840Z,37.15
2022-11-06T05:36:21.632Z,34.17
2022-11-06T05:38:48.936Z,34.38
2022-11-06T05:41:16.194Z,33.70
2022-11-06T05:43:43.916Z,32.20
2022-11-06T05:46:29.649Z,34.67
2022-11-06T05:48:58.623Z,32.08
2022-11-06T05:51:26.019Z,32.65
2022-11-06T05:53:53.308Z,33.55
2022-11-06T05:56:20.758Z,32.10
2022-11-06T05:58:48.048Z,32.38
2022-11-06T06:01:15.694Z,35.65
2022-11-06T06:03:43.378Z,38.90
2022-11-06T06:06:10.725Z,28.63
2022-11-06T06:08:38.082Z,28.83
2022-11-06T06:11:08.527Z,31.73
2022-11-06T06:13:37.633Z,33.75
2022-11-06T06:16:05.288Z,30.67
2022-11-06T06:18:32.537Z,30.52
2022-11-06T06:21:00.314Z,30.42
2022-11-06T06:23:27.553Z,27.45
2022-11-06T06:25:55.022Z,26.98
2022-11-06T06:28:22.321Z,28.63
2022-11-06T06:30:49.668Z,26.42
2022-11-06T06:33:17.010Z,24.48
2022-11-06T06:35:45.022Z,26.63
2022-11-06T06:38:12.648Z,28.13
2022-11-06T06:40:40.217Z,26.58
2022-11-06T06:43:07.454Z,26.80
2022-11-06T06:45:35.287Z,22.05
2022-11-06T06:48:04.735Z,22.38
2022-11-06T06:50:32.707Z,23.30
2022-11-06T06:53:00.528Z,20.95
2022-11-06T06:55:28.000Z,18.88
2022-11-06T06:58:01.908Z,20.10
2022-11-06T07:00:29.914Z,17.52
2022-11-06T07:02:58.492Z,16.67
2022-11-06T07:05:25.796Z,14.02
2022-11-06T07:07:53.216Z,11.30
2022-11-06T07:10:20.824Z,10.35
2022-11-06T07:12:48.380Z,11.48
2022-11-06T07:15:15.895Z,8.73
2022-11-06T07:17:43.206Z,8.60
2022-11-06T07:20:11.125Z,8.75
2022-11-06T07:22:38.450Z,10.63
2022-11-06T07:25:06.580Z,12.98
2022-11-06T07:27:33.996Z,8.93
2022-11-06T07:30:01.473Z,10.07
2022-11-06T07:32:29.113Z,8.07
2022-11-06T07:34:56.372Z,19.75
2022-11-06T07:37:23.710Z,7.53
2022-11-06T07:39:51.195Z,7.68
2022-11-06T07:42:18.565Z,6.10
2022-11-06T07:44:57.703Z,6.32
2022-11-06T07:47:25.256Z,8.48
2022-11-06T07:49:52.586Z,6.72
2022-11-06T07:52:19.867Z,8.38
2022-11-06T07:54:47.151Z,9.15
2022-11-06T07:57:14.613Z,7.72
2022-11-06T07:59:42.859Z,7.97
2022-11-06T08:02:14.812Z,7.13
2022-11-06T08:04:42.319Z,9.50
2022-11-06T08:07:09.706Z,6.82
2022-11-06T08:09:37.118Z,7.40
2022-11-06T08:12:07.990Z,7.90
2022-11-06T08:14:41.012Z,9.98
2022-11-06T08:17:08.874Z,8.73
2022-11-06T08:19:36.367Z,8.48
2022-11-06T08:22:03.945Z,8.38
2022-11-06T08:24:31.281Z,8.52
2022-11-06T08:26:59.352Z,5.90
2022-11-06T08:29:26.714Z,7.38
2022-11-06T08:31:54.151Z,6.50
2022-11-06T08:34:21.555Z,7.47
2022-11-06T08:36:50.592Z,8.18
2022-11-06T08:39:17.932Z,5.80
2022-11-06T08:41:45.474Z,9.30
2022-11-06T08:44:12.913Z,4.65
2022-11-06T08:46:40.382Z,7.05
2022-11-06T08:49:07.743Z,5.07
2022-11-06T08:51:35.135Z,5.40
2022-11-06T08:54:02.637Z,9.25
2022-11-06T08:56:30.081Z,7.05
2022-11-06T08:58:57.534Z,7.30
2022-11-06T09:01:25.173Z,6.10
2022-11-06T09:03:52.736Z,6.80
2022-11-06T09:06:20.150Z,7.72
2022-11-06T09:08:49.752Z,6.50
2022-11-06T09:11:17.187Z,6.47
2022-11-06T09:13:46.248Z,7.75
2022-11-06T09:16:16.734Z,7.20
2022-11-06T09:18:44.422Z,4.93
2022-11-06T09:21:11.965Z,5.20
2022-11-06T09:23:39.438Z,5.85
2022-11-06T09:26:06.982Z,6.60
2022-11-06T09:28:34.374Z,5.35
2022-11-06T09:31:02.691Z,9.82
2022-11-06T09:33:30.086Z,4.20
2022-11-06T09:35:57.560Z,3.38
2022-11-06T09:38:25.125Z,4.90
2022-11-06T09:41:02.929Z,3.75
2022-11-06T09:44:04.669Z,4.75
2022-11-06T09:46:40.020Z,6.00
2022-11-06T09:49:26.673Z,4.80
2022-11-06T09:52:12.602Z,7.63
2022-11-06T09:54:40.282Z,5.60
2022-11-06T09:57:20.771Z,6.35
2022-11-06T09:59:49.428Z,6.03
2022-11-06T10:02:49.987Z,3.60
2022-11-06T10:05:20.241Z,3.55
2022-11-06T10:07:51.306Z,4.22
2022-11-06T10:10:21.456Z,5.50
2022-11-06T10:13:30.349Z,5.25
2022-11-06T10:16:13.914Z,6.47
2022-11-06T10:18:59.712Z,4.50
2022-11-06T10:21:45.298Z,8.25
2022-11-06T10:24:19.009Z,4.38
2022-11-06T10:26:52.417Z,6.82
2022-11-06T10:29:51.793Z,4.32
2022-11-06T10:32:45.718Z,5.13
2022-11-06T10:35:25.977Z,4.85
2022-11-06T10:38:06.843Z,3.97
2022-11-06T10:40:35.572Z,3.92
2022-11-06T10:43:32.341Z,5.65
2022-11-06T10:46:08.933Z,5.97
2022-11-06T10:48:44.218Z,5.30
2022-11-06T10:51:22.054Z,6.30
2022-11-06T10:54:25.020Z,6.32
2022-11-06T10:56:52.303Z,4.88
2022-11-06T10:59:20.166Z,5.97
2022-11-06T11:01:47.611Z,7.32
2022-11-06T11:04:15.043Z,7.63
2022-11-06T11:06:42.586Z,6.05
2022-11-06T11:09:30.211Z,7.45
2022-11-06T11:12:00.116Z,6.53
2022-11-06T11:14:31.399Z,6.00
2022-11-06T11:17:01.381Z,5.25
2022-11-06T11:19:44.216Z,7.53
2022-11-06T11:22:22.303Z,6.45
2022-11-06T11:25:04.970Z,3.83
2022-11-06T11:27:45.596Z,5.13
2022-11-06T11:30:26.593Z,5.72
2022-11-06T11:32:54.704Z,3.58
2022-11-06T11:35:28.816Z,5.55
2022-11-06T11:38:26.353Z,3.97
2022-11-06T11:41:07.895Z,4.38
2022-11-06T11:43:35.955Z,5.88
2022-11-06T11:46:15.452Z,3.33
2022-11-06T11:48:56.231Z,8.65
2022-11-06T11:51:26.183Z,3.38
2022-11-06T11:53:57.971Z,5.32
2022-11-06T11:56:50.064Z,4.28
2022-11-06T11:59:27.286Z,6.45
2022-11-06T12:01:57.555Z,2.97
2022-11-06T12:04:32.663Z,4.20
2022-11-06T12:07:07.459Z,4.05
2022-11-06T12:09:45.558Z,3.25
2022-11-06T12:12:39.092Z,3.60
2022-11-06T12:15:09.371Z,2.88
2022-11-06T12:17:40.478Z,7.38
2022-11-06T12:20:23.269Z,3.45
2022-11-06T12:22:52.545Z,5.38
2022-11-06T12:25:40.069Z,3.58
2022-11-06T12:28:15.588Z,3.90
2022-11-06T12:30:46.855Z,3.97
2022-11-06T12:33:27.387Z,5.50
2022-11-06T12:36:17.424Z,4.40
2022-11-06T12:39:02.064Z,4.57
2022-11-06T12:41:46.158Z,6.03
2022-11-06T12:44:16.786Z,6.55
2022-11-06T12:46:59.575Z,6.20
2022-11-06T12:49:57.291Z,5.70
2022-11-06T12:52:31.286Z,7.25
2022-11-06T12:55:22.946Z,5.35
2022-11-06T12:58:18.299Z,4.10
2022-11-06T13:00:48.840Z,7.05
2022-11-06T13:03:44.079Z,5.43
2022-11-06T13:06:50.174Z,2.90
2022-11-06T13:09:23.501Z,7.57
2022-11-06T13:12:03.558Z,4.05
2022-11-06T13:14:56.186Z,4.57
2022-11-06T13:17:36.423Z,6.50
2022-11-06T13:20:15.369Z,5.32
2022-11-06T13:23:04.433Z,7.93
2022-11-06T13:25:49.166Z,7.25
2022-11-06T13:28:16.687Z,7.85
2022-11-06T13:30:45.185Z,7.30
2022-11-06T13:33:23.905Z,6.07
2022-11-06T13:35:51.724Z,11.80
2022-11-06T13:38:27.601Z,10.25
2022-11-06T13:41:08.212Z,6.78
2022-11-06T13:43:46.320Z,5.00
2022-11-06T13:46:48.474Z,5.88
2022-11-06T13:49:18.597Z,6.85
2022-11-06T13:51:56.761Z,6.00
2022-11-06T13:54:34.268Z,4.93
2022-11-06T13:57:33.646Z,5.68
2022-11-06T14:00:18.318Z,6.88
2022-11-06T14:03:16.394Z,5.00
2022-11-06T14:06:11.014Z,3.63
2022-11-06T14:08:47.080Z,5.70
2022-11-06T14:11:20.756Z,5.47
2022-11-06T14:14:26.520Z,6.50
2022-11-06T14:17:11.201Z,5.57
2022-11-06T14:21:47.176Z,8.75
2022-11-06T14:24:27.543Z,6.50
2022-11-06T14:26:55.228Z,6.10
2022-11-06T14:29:28.339Z,6.57
2022-11-06T14:32:13.280Z,3.85
2022-11-06T14:34:42.808Z,5.83
2022-11-06T14:37:19.054Z,5.72
2022-11-06T14:39:52.596Z,7.32
2022-11-06T14:42:32.977Z,6.18
2022-11-06T14:45:10.274Z,6.55
2022-11-06T14:47:40.408Z,8.48
2022-11-06T14:50:19.840Z,8.98
2022-11-06T14:52:51.862Z,8.23
2022-11-06T14:55:36.562Z,5.78
2022-11-06T14:58:12.970Z,8.15
2022-11-06T15:00:55.519Z,9.25
2022-11-06T15:03:33.213Z,7.45
2022-11-06T15:06:19.181Z,8.07
2022-11-06T15:08:49.131Z,10.23
2022-11-06T15:11:46.645Z,4.68
2022-11-06T15:14:15.244Z,7.18
2022-11-06T15:16:43.632Z,12.15
2022-11-06T15:19:38.619Z,7.28
2022-11-06T15:22:17.156Z,10.77
2022-11-06T15:25:20.705Z,8.77
2022-11-06T15:28:06.007Z,12.15
2022-11-06T15:30:42.685Z,10.85
2022-11-06T15:33:17.216Z,8.40
2022-11-06T15:35:47.991Z,14.50
2022-11-06T15:38:21.834Z,11.23
2022-11-06T15:40:54.170Z,14.90
2022-11-06T15:43:33.532Z,11.57
2022-11-06T15:46:08.133Z,13.85
2022-11-06T15:48:35.747Z,14.48
2022-11-06T15:51:03.309Z,10.82
2022-11-06T15:53:31.308Z,12.27
2022-11-06T15:56:05.847Z,10.38
2022-11-06T15:58:36.049Z,14.53
2022-11-06T16:01:06.108Z,9.23
2022-11-06T16:03:49.062Z,9.75
2022-11-06T16:06:17.042Z,12.88
2022-11-06T16:08:45.834Z,12.23
2022-11-06T16:11:18.360Z,13.52
2022-11-06T16:13:47.051Z,10.50
2022-11-06T16:16:38.192Z,17.05
2022-11-06T16:19:08.546Z,19.70
2022-11-06T16:21:37.071Z,14.85
2022-11-06T16:24:13.053Z,16.38
2022-11-06T16:26:47.245Z,14.57
2022-11-06T16:29:24.464Z,17.38
2022-11-06T16:32:08.224Z,15.85
2022-11-06T16:34:46.034Z,15.30
2022-11-06T16:37:16.421Z,15.63
2022-11-06T16:39:50.252Z,12.68
2022-11-06T16:42:28.614Z,13.00
2022-11-06T16:45:19.807Z,12.80
2022-11-06T16:48:10.110Z,14.80
2022-11-06T16:50:51.864Z,19.85
2022-11-06T16:53:25.726Z,14.40
2022-11-06T16:55:58.800Z,16.70
2022-11-06T16:58:28.382Z,18.63
2022-11-06T17:00:59.233Z,17.35
2022-11-06T17:03:29.654Z,20.80
2022-11-06T17:05:59.070Z,21.90
2022-11-06T17:08:38.726Z,20.90
2022-11-06T17:11:21.948Z,21.63
2022-11-06T17:13:50.857Z,21.48
2022-11-06T17:16:23.998Z,29.75
2022-11-06T17:18:52.144Z,28.98
2022-11-06T17:21:25.071Z,28.10
2022-11-06T17:23:53.248Z,31.10
2022-11-06T17:26:27.022Z,27.98
2022-11-06T17:28:58.139Z,24.92
2022-11-06T17:31:26.391Z,34.00
2022-11-06T17:33:54.146Z,21.42
2022-11-06T17:36:25.496Z,22.35
2022-11-06T17:38:53.817Z,20.42
2022-11-06T17:41:32.720Z,17.95
2022-11-06T17:44:08.995Z,18.65
2022-11-06T17:46:38.688Z,19.63
2022-11-06T17:49:06.562Z,17.98
2022-11-06T17:51:53.326Z,18.02
2022-11-06T17:54:24.006Z,19.05
2022-11-06T17:56:52.808Z,15.18
2022-11-06T17:59:20.960Z,24.73
2022-11-06T18:01:50.797Z,22.85
2022-11-06T18:04:19.638Z,21.77
2022-11-06T18:06:49.367Z,21.63
2022-11-06T18:09:16.728Z,20.25
2022-11-06T18:11:44.491Z,23.33
2022-11-06T18:14:12.682Z,22.95
2022-11-06T18:16:43.737Z,23.67
2022-11-06T18:19:14.615Z,22.52
2022-11-06T18:21:41.917Z,26.27
2022-11-06T18:24:09.399Z,23.70
2022-11-06T18:26:37.610Z,21.23
2022-11-06T18:29:08.787Z,21.73
2022-11-06T18:31:36.543Z,25.27
2022-11-06T18:34:05.130Z,32.20
2022-11-06T18:36:35.243Z,37.45
2022-11-06T18:39:03.706Z,27.13
2022-11-06T18:41:31.124Z,29.45
2022-11-06T18:43:59.658Z,24.85
2022-11-06T18:46:28.255Z,29.48
2022-11-06T18:48:56.467Z,21.10
2022-11-06T18:51:34.376Z,21.17
2022-11-06T18:54:05.664Z,35.78
2022-11-06T18:56:36.319Z,32.88
2022-11-06T18:59:06.384Z,27.02
2022-11-06T19:01:35.639Z,35.33
2022-11-06T19:04:04.580Z,24.63
2022-11-06T19:06:35.500Z,31.92
2022-11-06T19:09:03.018Z,34.05
2022-11-06T19:11:30.473Z,23.88
2022-11-06T19:13:57.986Z,40.50
2022-11-06T19:16:25.581Z,31.05
2022-11-06T19:21:30.874Z,32.42
2022-11-06T19:24:03.819Z,26.48
2022-11-06T19:26:32.631Z,27.27
2022-11-06T19:29:01.059Z,30.40
2022-11-06T19:31:30.929Z,25.17
2022-11-06T19:33:59.774Z,29.20
2022-11-06T19:36:29.164Z,27.23
2022-11-06T19:38:59.763Z,25.92
2022-11-06T19:41:29.076Z,22.00
2022-11-06T19:43:57.127Z,19.85
2022-11-06T19:46:28.523Z,18.52
2022-11-06T19:49:01.609Z,24.52
2022-11-06T19:51:29.246Z,20.73
2022-11-06T19:53:57.098Z,17.98
2022-11-06T19:56:24.712Z,22.38
2022-11-06T19:58:52.738Z,21.55
2022-11-06T20:01:20.998Z,25.52
2022-11-06T20:03:48.607Z,25.13
2022-11-06T20:06:16.533Z,25.27
2022-11-06T20:08:47.216Z,22.45
2022-11-06T20:11:15.452Z,27.40
2022-11-06T20:13:44.377Z,19.67
2022-11-06T20:16:14.935Z,24.08
2022-11-06T20:18:42.308Z,16.50
2022-11-06T20:21:12.088Z,23.90
2022-11-06T20:23:40.098Z,24.08
2022-11-06T20:26:07.639Z,16.38
2022-11-06T20:28:35.863Z,21.17
2022-11-06T20:31:11.950Z,16.83
2022-11-06T20:33:39.860Z,17.60
2022-11-06T20:36:16.489Z,26.00
2022-11-06T20:38:45.067Z,20.15
2022-11-06T20:41:14.727Z,20.80
2022-11-06T20:43:43.135Z,23.17
2022-11-06T20:46:11.994Z,21.73
2022-11-06T20:48:39.555Z,25.52
2022-11-06T20:51:09.384Z,28.83
2022-11-06T20:53:36.769Z,24.60
2022-11-06T20:56:06.790Z,20.88
2022-11-06T20:58:34.839Z,25.85
2022-11-06T21:01:06.923Z,25.77
2022-11-06T21:03:36.412Z,27.23
2022-11-06T21:06:04.575Z,29.13
2022-11-06T21:08:37.159Z,25.67
2022-11-06T21:11:13.507Z,28.13
2022-11-06T21:13:41.678Z,33.60
2022-11-06T21:16:17.745Z,34.95
2022-11-06T21:18:46.146Z,26.30
2022-11-06T21:21:17.668Z,28.50
2022-11-06T21:23:44.974Z,27.48
2022-11-06T21:26:14.894Z,23.20
2022-11-06T21:28:43.784Z,20.77
2022-11-06T21:31:25.655Z,20.85
2022-11-06T21:33:55.019Z,27.88
2022-11-06T21:36:37.509Z,19.38
2022-11-06T21:39:08.406Z,23.75
2022-11-06T21:41:36.425Z,20.88
2022-11-06T21:44:05.388Z,22.67
2022-11-06T21:46:33.167Z,20.33
2022-11-06T21:49:00.742Z,17.25
2022-11-06T21:51:31.254Z,17.63
2022-11-06T21:54:17.564Z,17.80
2022-11-06T21:56:50.380Z,15.23
2022-11-06T21:59:20.128Z,19.48
2022-11-06T22:01:47.720Z,20.15
2022-11-06T22:04:15.444Z,19.30
2022-11-06T22:06:43.748Z,14.80
2022-11-06T22:09:13.189Z,18.42
2022-11-06T22:11:43.257Z,13.13
2022-11-06T22:14:17.572Z,11.43
2022-11-06T22:16:47.332Z,17.63
2022-11-06T22:19:16.516Z,18.92
2022-11-06T22:21:44.194Z,15.23
2022-11-06T22:24:13.467Z,13.15
2022-11-06T22:26:41.086Z,20.38
2022-11-06T22:29:11.337Z,29.13
2022-11-06T22:31:38.855Z,26.67
2022-11-06T22:34:06.504Z,25.48
2022-11-06T22:36:33.881Z,23.77
2022-11-06T22:39:08.066Z,30.40
2022-11-06T22:41:35.754Z,27.33
2022-11-06T22:44:03.198Z,29.30
2022-11-06T22:46:31.109Z,27.67
2022-11-06T22:48:58.690Z,24.38
2022-11-06T22:51:31.551Z,25.38
2022-11-06T22:54:00.260Z,27.65
2022-11-06T22:56:29.816Z,22.23
2022-11-06T22:58:59.371Z,25.63
2022-11-06T23:01:29.456Z,21.35
2022-11-06T23:04:00.961Z,27.45
2022-11-06T23:06:28.689Z,23.95
2022-11-06T23:08:56.018Z,29.13
2022-11-06T23:11:25.275Z,16.55
2022-11-06T23:13:53.534Z,20.08
2022-11-06T23:16:43.964Z,15.68
2022-11-06T23:19:14.332Z,16.77
2022-11-06T23:21:42.287Z,19.17
2022-11-06T23:24:10.558Z,14.38
2022-11-06T23:26:38.205Z,17.05
2022-11-06T23:29:05.638Z,16.52
2022-11-06T23:31:32.928Z,14.88
2022-11-06T23:34:00.342Z,13.95
2022-11-06T23:36:27.617Z,20.83
2022-11-06T23:38:55.142Z,21.23
2022-11-06T23:41:41.140Z,19.55
2022-11-06T23:49:23.661Z,18.35
2022-11-06T23:51:51.029Z,18.80
2022-11-06T23:54:18.818Z,25.75
2022-11-06T23:56:46.155Z,22.33
2022-11-06T23:59:13.589Z,19.95
